sensor_id;sensor_type;location;lat;lon;timestamp;P1;durP1;ratioP1;P2;durP2;ratioP2
66429;SDS011;53242;51.694;10.006;2023-08-30T00:02:21;5.75;;;2.25;;
66429;SDS011;53242;51.694;10.006;2023-08-30T00:04:46;4.75;;;2.38;;
66429;SDS011;53242;51.694;10.006;2023-08-30T00:07:09;6.50;;;2.53;;
66429;SDS011;53242;51.694;10.006;2023-08-30T00:09:32;4.50;;;2.13;;
66429;SDS011;53242;51.694;10.006;2023-08-30T00:11:55;6.43;;;2.40;;
66429;SDS011;53242;51.694;10.006;2023-08-30T00:14:17;4.30;;;2.40;;
66429;SDS011;53242;51.694;10.006;2023-08-30T00:16:40;4.65;;;2.40;;
66429;SDS011;53242;51.694;10.006;2023-08-30T00:19:02;3.60;;;2.25;;
66429;SDS011;53242;51.694;10.006;2023-08-30T00:21:25;4.95;;;2.17;;
66429;SDS011;53242;51.694;10.006;2023-08-30T00:23:47;4.07;;;1.95;;
66429;SDS011;53242;51.694;10.006;2023-08-30T00:26:10;4.82;;;2.40;;
66429;SDS011;53242;51.694;10.006;2023-08-30T00:28:32;4.78;;;2.20;;
66429;SDS011;53242;51.694;10.006;2023-08-30T00:30:55;5.70;;;2.25;;
66429;SDS011;53242;51.694;10.006;2023-08-30T00:33:18;4.40;;;2.22;;
66429;SDS011;53242;51.694;10.006;2023-08-30T00:35:40;5.13;;;2.40;;
66429;SDS011;53242;51.694;10.006;2023-08-30T00:38:03;5.35;;;2.40;;
66429;SDS011;53242;51.694;10.006;2023-08-30T00:40:25;4.63;;;2.40;;
66429;SDS011;53242;51.694;10.006;2023-08-30T00:42:49;4.50;;;2.38;;
66429;SDS011;53242;51.694;10.006;2023-08-30T00:45:11;5.88;;;2.35;;
66429;SDS011;53242;51.694;10.006;2023-08-30T00:47:34;4.32;;;2.25;;
66429;SDS011;53242;51.694;10.006;2023-08-30T00:49:57;4.57;;;2.28;;
66429;SDS011;53242;51.694;10.006;2023-08-30T00:52:20;5.38;;;2.70;;
66429;SDS011;53242;51.694;10.006;2023-08-30T00:54:42;5.68;;;2.70;;
66429;SDS011;53242;51.694;10.006;2023-08-30T00:57:05;4.85;;;2.35;;
66429;SDS011;53242;51.694;10.006;2023-08-30T00:59:29;4.60;;;2.60;;
66429;SDS011;53242;51.694;10.006;2023-08-30T01:01:55;5.13;;;2.60;;
66429;SDS011;53242;51.694;10.006;2023-08-30T01:04:18;5.60;;;2.40;;
66429;SDS011;53242;51.694;10.006;2023-08-30T01:06:41;5.32;;;2.75;;
66429;SDS011;53242;51.694;10.006;2023-08-30T01:09:03;5.75;;;2.38;;
66429;SDS011;53242;51.694;10.006;2023-08-30T01:11:36;6.00;;;2.70;;
66429;SDS011;53242;51.694;10.006;2023-08-30T01:14:09;4.60;;;2.42;;
66429;SDS011;53242;51.694;10.006;2023-08-30T01:16:36;5.32;;;2.35;;
66429;SDS011;53242;51.694;10.006;2023-08-30T01:18:59;3.40;;;2.20;;
66429;SDS011;53242;51.694;10.006;2023-08-30T01:24:09;5.32;;;2.70;;
66429;SDS011;53242;51.694;10.006;2023-08-30T01:26:45;5.72;;;2.70;;
66429;SDS011;53242;51.694;10.006;2023-08-30T01:29:22;4.10;;;2.60;;
66429;SDS011;53242;51.694;10.006;2023-08-30T01:31:46;5.03;;;2.60;;
66429;SDS011;53242;51.694;10.006;2023-08-30T01:34:10;4.93;;;2.72;;
66429;SDS011;53242;51.694;10.006;2023-08-30T01:36:35;7.10;;;2.60;;
66429;SDS011;53242;51.694;10.006;2023-08-30T01:38:58;3.88;;;2.47;;
66429;SDS011;53242;51.694;10.006;2023-08-30T01:41:22;4.72;;;2.30;;
66429;SDS011;53242;51.694;10.006;2023-08-30T01:43:45;4.20;;;2.38;;
66429;SDS011;53242;51.694;10.006;2023-08-30T01:46:10;4.60;;;2.65;;
66429;SDS011;53242;51.694;10.006;2023-08-30T01:48:33;4.47;;;2.50;;
66429;SDS011;53242;51.694;10.006;2023-08-30T01:50:58;6.72;;;2.65;;
66429;SDS011;53242;51.694;10.006;2023-08-30T01:53:22;5.22;;;2.65;;
66429;SDS011;53242;51.694;10.006;2023-08-30T01:55:44;6.47;;;2.60;;
66429;SDS011;53242;51.694;10.006;2023-08-30T01:58:07;4.93;;;2.90;;
66429;SDS011;53242;51.694;10.006;2023-08-30T02:00:30;5.30;;;2.60;;
66429;SDS011;53242;51.694;10.006;2023-08-30T02:02:54;4.43;;;2.60;;
66429;SDS011;53242;51.694;10.006;2023-08-30T02:05:16;4.57;;;2.40;;
66429;SDS011;53242;51.694;10.006;2023-08-30T02:07:40;4.72;;;2.55;;
66429;SDS011;53242;51.694;10.006;2023-08-30T02:10:13;7.28;;;2.45;;
66429;SDS011;53242;51.694;10.006;2023-08-30T02:12:49;6.60;;;2.38;;
66429;SDS011;53242;51.694;10.006;2023-08-30T02:15:14;4.72;;;2.50;;
66429;SDS011;53242;51.694;10.006;2023-08-30T02:17:39;4.30;;;2.42;;
66429;SDS011;53242;51.694;10.006;2023-08-30T02:20:02;4.15;;;2.22;;
66429;SDS011;53242;51.694;10.006;2023-08-30T02:22:25;4.88;;;2.40;;
66429;SDS011;53242;51.694;10.006;2023-08-30T02:24:48;4.35;;;2.30;;
66429;SDS011;53242;51.694;10.006;2023-08-30T02:27:11;6.32;;;2.78;;
66429;SDS011;53242;51.694;10.006;2023-08-30T02:29:33;7.05;;;2.78;;
66429;SDS011;53242;51.694;10.006;2023-08-30T02:31:56;4.68;;;2.63;;
66429;SDS011;53242;51.694;10.006;2023-08-30T02:34:18;6.70;;;2.80;;
66429;SDS011;53242;51.694;10.006;2023-08-30T02:36:41;6.18;;;3.15;;
66429;SDS011;53242;51.694;10.006;2023-08-30T02:39:03;5.13;;;2.40;;
66429;SDS011;53242;51.694;10.006;2023-08-30T02:41:26;5.53;;;2.88;;
66429;SDS011;53242;51.694;10.006;2023-08-30T02:43:48;4.75;;;2.72;;
66429;SDS011;53242;51.694;10.006;2023-08-30T02:46:11;6.15;;;2.47;;
66429;SDS011;53242;51.694;10.006;2023-08-30T02:48:34;5.38;;;2.58;;
66429;SDS011;53242;51.694;10.006;2023-08-30T02:50:56;6.97;;;2.63;;
66429;SDS011;53242;51.694;10.006;2023-08-30T02:53:19;6.88;;;2.58;;
66429;SDS011;53242;51.694;10.006;2023-08-30T02:55:42;5.35;;;2.50;;
66429;SDS011;53242;51.694;10.006;2023-08-30T02:58:05;5.07;;;2.58;;
66429;SDS011;53242;51.694;10.006;2023-08-30T03:00:27;5.18;;;2.80;;
66429;SDS011;53242;51.694;10.006;2023-08-30T03:02:51;7.13;;;2.58;;
66429;SDS011;53242;51.694;10.006;2023-08-30T03:05:13;5.47;;;2.80;;
66429;SDS011;53242;51.694;10.006;2023-08-30T03:07:35;5.65;;;2.72;;
66429;SDS011;53242;51.694;10.006;2023-08-30T03:09:58;5.97;;;2.83;;
66429;SDS011;53242;51.694;10.006;2023-08-30T03:12:20;7.60;;;2.88;;
66429;SDS011;53242;51.694;10.006;2023-08-30T03:14:43;5.93;;;2.97;;
66429;SDS011;53242;51.694;10.006;2023-08-30T03:17:05;5.25;;;2.85;;
66429;SDS011;53242;51.694;10.006;2023-08-30T03:19:28;6.68;;;2.95;;
66429;SDS011;53242;51.694;10.006;2023-08-30T03:21:50;6.43;;;3.40;;
66429;SDS011;53242;51.694;10.006;2023-08-30T03:24:12;6.22;;;3.10;;
66429;SDS011;53242;51.694;10.006;2023-08-30T03:26:36;4.13;;;2.45;;
66429;SDS011;53242;51.694;10.006;2023-08-30T03:28:58;5.53;;;3.00;;
66429;SDS011;53242;51.694;10.006;2023-08-30T03:31:22;6.70;;;2.92;;
66429;SDS011;53242;51.694;10.006;2023-08-30T03:33:46;5.35;;;2.72;;
66429;SDS011;53242;51.694;10.006;2023-08-30T03:36:12;5.45;;;2.83;;
66429;SDS011;53242;51.694;10.006;2023-08-30T03:38:36;6.35;;;3.15;;
66429;SDS011;53242;51.694;10.006;2023-08-30T03:40:59;6.22;;;3.13;;
66429;SDS011;53242;51.694;10.006;2023-08-30T03:43:21;7.15;;;3.63;;
66429;SDS011;53242;51.694;10.006;2023-08-30T03:45:44;6.25;;;3.30;;
66429;SDS011;53242;51.694;10.006;2023-08-30T03:48:07;5.78;;;3.00;;
66429;SDS011;53242;51.694;10.006;2023-08-30T03:50:30;7.07;;;3.03;;
66429;SDS011;53242;51.694;10.006;2023-08-30T03:52:52;6.15;;;2.50;;
66429;SDS011;53242;51.694;10.006;2023-08-30T03:55:15;5.63;;;2.85;;
66429;SDS011;53242;51.694;10.006;2023-08-30T03:57:37;6.93;;;3.15;;
66429;SDS011;53242;51.694;10.006;2023-08-30T04:00:00;5.68;;;2.97;;
66429;SDS011;53242;51.694;10.006;2023-08-30T04:02:22;5.70;;;2.90;;
66429;SDS011;53242;51.694;10.006;2023-08-30T04:04:48;5.75;;;2.88;;
66429;SDS011;53242;51.694;10.006;2023-08-30T04:07:11;7.35;;;3.35;;
66429;SDS011;53242;51.694;10.006;2023-08-30T04:09:34;5.20;;;3.20;;
66429;SDS011;53242;51.694;10.006;2023-08-30T04:11:56;9.45;;;3.63;;
66429;SDS011;53242;51.694;10.006;2023-08-30T04:14:20;6.85;;;3.30;;
66429;SDS011;53242;51.694;10.006;2023-08-30T04:16:42;6.05;;;2.90;;
66429;SDS011;53242;51.694;10.006;2023-08-30T04:19:05;5.38;;;2.83;;
66429;SDS011;53242;51.694;10.006;2023-08-30T04:21:27;5.95;;;3.13;;
66429;SDS011;53242;51.694;10.006;2023-08-30T04:23:49;6.97;;;3.45;;
66429;SDS011;53242;51.694;10.006;2023-08-30T04:26:12;6.22;;;3.08;;
66429;SDS011;53242;51.694;10.006;2023-08-30T04:28:34;6.20;;;3.40;;
66429;SDS011;53242;51.694;10.006;2023-08-30T04:30:57;6.22;;;3.55;;
66429;SDS011;53242;51.694;10.006;2023-08-30T04:33:19;4.95;;;2.90;;
66429;SDS011;53242;51.694;10.006;2023-08-30T04:35:42;6.10;;;2.90;;
66429;SDS011;53242;51.694;10.006;2023-08-30T04:38:04;7.68;;;3.60;;
66429;SDS011;53242;51.694;10.006;2023-08-30T04:40:27;8.10;;;4.30;;
66429;SDS011;53242;51.694;10.006;2023-08-30T04:42:50;8.40;;;4.68;;
66429;SDS011;53242;51.694;10.006;2023-08-30T04:45:13;11.13;;;4.97;;
66429;SDS011;53242;51.694;10.006;2023-08-30T04:47:35;12.23;;;4.80;;
66429;SDS011;53242;51.694;10.006;2023-08-30T04:49:58;12.32;;;4.80;;
66429;SDS011;53242;51.694;10.006;2023-08-30T04:52:21;10.90;;;4.63;;
66429;SDS011;53242;51.694;10.006;2023-08-30T04:54:45;11.15;;;5.00;;
66429;SDS011;53242;51.694;10.006;2023-08-30T04:57:09;9.95;;;4.55;;
66429;SDS011;53242;51.694;10.006;2023-08-30T04:59:31;11.52;;;4.95;;
66429;SDS011;53242;51.694;10.006;2023-08-30T05:01:53;9.52;;;4.22;;
66429;SDS011;53242;51.694;10.006;2023-08-30T05:04:19;10.95;;;4.50;;
66429;SDS011;53242;51.694;10.006;2023-08-30T05:06:41;9.23;;;4.40;;
66429;SDS011;53242;51.694;10.006;2023-08-30T05:09:04;9.02;;;4.18;;
66429;SDS011;53242;51.694;10.006;2023-08-30T05:11:26;8.10;;;3.92;;
66429;SDS011;53242;51.694;10.006;2023-08-30T05:13:48;8.70;;;3.80;;
66429;SDS011;53242;51.694;10.006;2023-08-30T05:16:11;7.55;;;3.60;;
66429;SDS011;53242;51.694;10.006;2023-08-30T05:18:33;6.82;;;3.20;;
66429;SDS011;53242;51.694;10.006;2023-08-30T05:20:57;10.27;;;3.60;;
66429;SDS011;53242;51.694;10.006;2023-08-30T05:23:20;6.32;;;3.42;;
66429;SDS011;53242;51.694;10.006;2023-08-30T05:25:43;6.57;;;3.55;;
66429;SDS011;53242;51.694;10.006;2023-08-30T05:28:06;7.25;;;3.58;;
66429;SDS011;53242;51.694;10.006;2023-08-30T05:30:28;6.95;;;3.28;;
66429;SDS011;53242;51.694;10.006;2023-08-30T05:32:53;9.55;;;4.00;;
66429;SDS011;53242;51.694;10.006;2023-08-30T05:35:33;7.20;;;3.75;;
66429;SDS011;53242;51.694;10.006;2023-08-30T05:38:31;7.60;;;3.58;;
66429;SDS011;53242;51.694;10.006;2023-08-30T05:41:09;7.00;;;3.45;;
66429;SDS011;53242;51.694;10.006;2023-08-30T05:43:31;6.68;;;3.50;;
66429;SDS011;53242;51.694;10.006;2023-08-30T05:45:54;10.57;;;3.67;;
66429;SDS011;53242;51.694;10.006;2023-08-30T05:48:17;7.20;;;3.83;;
66429;SDS011;53242;51.694;10.006;2023-08-30T05:50:40;8.48;;;4.13;;
66429;SDS011;53242;51.694;10.006;2023-08-30T05:53:03;8.02;;;4.03;;
66429;SDS011;53242;51.694;10.006;2023-08-30T05:55:26;6.00;;;3.33;;
66429;SDS011;53242;51.694;10.006;2023-08-30T05:57:49;7.32;;;3.97;;
66429;SDS011;53242;51.694;10.006;2023-08-30T06:00:11;8.20;;;3.90;;
66429;SDS011;53242;51.694;10.006;2023-08-30T06:02:38;8.52;;;4.47;;
66429;SDS011;53242;51.694;10.006;2023-08-30T06:05:00;8.85;;;4.60;;
66429;SDS011;53242;51.694;10.006;2023-08-30T06:07:23;9.07;;;4.45;;
66429;SDS011;53242;51.694;10.006;2023-08-30T06:09:45;9.40;;;4.55;;
66429;SDS011;53242;51.694;10.006;2023-08-30T06:12:08;8.32;;;4.30;;
66429;SDS011;53242;51.694;10.006;2023-08-30T06:14:30;9.27;;;4.05;;
66429;SDS011;53242;51.694;10.006;2023-08-30T06:16:52;9.50;;;5.07;;
66429;SDS011;53242;51.694;10.006;2023-08-30T06:19:15;10.45;;;4.03;;
66429;SDS011;53242;51.694;10.006;2023-08-30T06:21:37;10.95;;;4.72;;
66429;SDS011;53242;51.694;10.006;2023-08-30T06:24:00;11.95;;;5.05;;
66429;SDS011;53242;51.694;10.006;2023-08-30T06:26:22;11.23;;;5.15;;
66429;SDS011;53242;51.694;10.006;2023-08-30T06:28:45;10.13;;;4.55;;
66429;SDS011;53242;51.694;10.006;2023-08-30T06:31:07;9.23;;;4.07;;
66429;SDS011;53242;51.694;10.006;2023-08-30T06:33:30;8.82;;;4.03;;
66429;SDS011;53242;51.694;10.006;2023-08-30T06:35:52;8.38;;;4.30;;
66429;SDS011;53242;51.694;10.006;2023-08-30T06:38:15;11.98;;;4.15;;
66429;SDS011;53242;51.694;10.006;2023-08-30T06:40:42;10.38;;;4.72;;
66429;SDS011;53242;51.694;10.006;2023-08-30T06:43:05;8.45;;;4.43;;
66429;SDS011;53242;51.694;10.006;2023-08-30T06:45:28;9.55;;;4.90;;
66429;SDS011;53242;51.694;10.006;2023-08-30T06:47:50;12.32;;;5.72;;
66429;SDS011;53242;51.694;10.006;2023-08-30T06:50:14;8.52;;;4.63;;
66429;SDS011;53242;51.694;10.006;2023-08-30T06:52:36;13.63;;;4.53;;
66429;SDS011;53242;51.694;10.006;2023-08-30T06:54:58;10.40;;;4.75;;
66429;SDS011;53242;51.694;10.006;2023-08-30T06:57:21;9.57;;;4.40;;
66429;SDS011;53242;51.694;10.006;2023-08-30T06:59:43;9.68;;;4.80;;
66429;SDS011;53242;51.694;10.006;2023-08-30T07:02:06;9.43;;;4.35;;
66429;SDS011;53242;51.694;10.006;2023-08-30T07:04:28;11.90;;;5.15;;
66429;SDS011;53242;51.694;10.006;2023-08-30T07:06:51;10.82;;;4.47;;
66429;SDS011;53242;51.694;10.006;2023-08-30T07:09:14;9.93;;;4.45;;
66429;SDS011;53242;51.694;10.006;2023-08-30T07:11:37;8.88;;;4.40;;
66429;SDS011;53242;51.694;10.006;2023-08-30T07:13:59;10.73;;;4.97;;
66429;SDS011;53242;51.694;10.006;2023-08-30T07:16:22;9.15;;;4.25;;
66429;SDS011;53242;51.694;10.006;2023-08-30T07:18:44;11.02;;;4.85;;
66429;SDS011;53242;51.694;10.006;2023-08-30T07:21:07;10.15;;;4.30;;
66429;SDS011;53242;51.694;10.006;2023-08-30T07:23:29;13.35;;;4.90;;
66429;SDS011;53242;51.694;10.006;2023-08-30T07:25:51;12.77;;;4.90;;
66429;SDS011;53242;51.694;10.006;2023-08-30T07:28:14;9.98;;;4.80;;
66429;SDS011;53242;51.694;10.006;2023-08-30T07:30:37;8.73;;;4.25;;
66429;SDS011;53242;51.694;10.006;2023-08-30T07:33:00;8.75;;;4.13;;
66429;SDS011;53242;51.694;10.006;2023-08-30T07:35:22;9.27;;;4.30;;
66429;SDS011;53242;51.694;10.006;2023-08-30T07:37:44;8.60;;;4.13;;
66429;SDS011;53242;51.694;10.006;2023-08-30T07:40:07;7.65;;;3.95;;
66429;SDS011;53242;51.694;10.006;2023-08-30T07:42:30;7.95;;;4.05;;
66429;SDS011;53242;51.694;10.006;2023-08-30T07:44:53;9.98;;;4.70;;
66429;SDS011;53242;51.694;10.006;2023-08-30T07:47:15;9.13;;;3.80;;
66429;SDS011;53242;51.694;10.006;2023-08-30T07:49:37;7.68;;;3.88;;
66429;SDS011;53242;51.694;10.006;2023-08-30T07:52:00;12.55;;;4.68;;
66429;SDS011;53242;51.694;10.006;2023-08-30T07:54:22;8.75;;;3.92;;
66429;SDS011;53242;51.694;10.006;2023-08-30T07:56:45;8.18;;;3.90;;
66429;SDS011;53242;51.694;10.006;2023-08-30T07:59:07;7.45;;;3.75;;
66429;SDS011;53242;51.694;10.006;2023-08-30T08:01:29;6.68;;;3.50;;
66429;SDS011;53242;51.694;10.006;2023-08-30T08:03:52;7.88;;;3.50;;
66429;SDS011;53242;51.694;10.006;2023-08-30T08:06:14;7.50;;;2.97;;
66429;SDS011;53242;51.694;10.006;2023-08-30T08:08:37;8.77;;;3.45;;
66429;SDS011;53242;51.694;10.006;2023-08-30T08:10:59;8.10;;;3.17;;
66429;SDS011;53242;51.694;10.006;2023-08-30T08:13:22;7.60;;;3.30;;
66429;SDS011;53242;51.694;10.006;2023-08-30T08:15:44;6.60;;;3.50;;
66429;SDS011;53242;51.694;10.006;2023-08-30T08:18:06;7.57;;;2.72;;
66429;SDS011;53242;51.694;10.006;2023-08-30T08:20:29;7.10;;;3.13;;
66429;SDS011;53242;51.694;10.006;2023-08-30T08:22:52;5.82;;;2.90;;
66429;SDS011;53242;51.694;10.006;2023-08-30T08:25:14;6.28;;;3.20;;
66429;SDS011;53242;51.694;10.006;2023-08-30T08:27:38;6.43;;;3.15;;
66429;SDS011;53242;51.694;10.006;2023-08-30T08:30:00;8.48;;;3.42;;
66429;SDS011;53242;51.694;10.006;2023-08-30T08:32:22;4.70;;;2.67;;
66429;SDS011;53242;51.694;10.006;2023-08-30T08:34:45;7.63;;;3.50;;
66429;SDS011;53242;51.694;10.006;2023-08-30T08:37:07;9.13;;;3.20;;
66429;SDS011;53242;51.694;10.006;2023-08-30T08:39:30;5.90;;;3.22;;
66429;SDS011;53242;51.694;10.006;2023-08-30T08:41:52;6.22;;;2.75;;
66429;SDS011;53242;51.694;10.006;2023-08-30T08:44:16;7.40;;;3.30;;
66429;SDS011;53242;51.694;10.006;2023-08-30T08:46:39;7.55;;;3.67;;
66429;SDS011;53242;51.694;10.006;2023-08-30T08:49:05;8.10;;;2.92;;
66429;SDS011;53242;51.694;10.006;2023-08-30T08:51:32;8.35;;;3.17;;
66429;SDS011;53242;51.694;10.006;2023-08-30T08:53:56;10.25;;;3.10;;
66429;SDS011;53242;51.694;10.006;2023-08-30T08:56:25;7.18;;;3.38;;
66429;SDS011;53242;51.694;10.006;2023-08-30T08:58:47;5.97;;;3.25;;
66429;SDS011;53242;51.694;10.006;2023-08-30T09:01:11;6.63;;;3.47;;
66429;SDS011;53242;51.694;10.006;2023-08-30T09:03:34;7.75;;;3.90;;
66429;SDS011;53242;51.694;10.006;2023-08-30T09:05:56;9.20;;;4.60;;
66429;SDS011;53242;51.694;10.006;2023-08-30T09:08:19;15.07;;;4.88;;
66429;SDS011;53242;51.694;10.006;2023-08-30T09:13:05;9.15;;;4.00;;
66429;SDS011;53242;51.694;10.006;2023-08-30T09:15:31;8.65;;;4.03;;
66429;SDS011;53242;51.694;10.006;2023-08-30T09:17:54;10.75;;;4.32;;
66429;SDS011;53242;51.694;10.006;2023-08-30T09:20:17;9.25;;;3.92;;
66429;SDS011;53242;51.694;10.006;2023-08-30T09:22:40;8.50;;;4.35;;
66429;SDS011;53242;51.694;10.006;2023-08-30T09:27:33;7.22;;;3.83;;
66429;SDS011;53242;51.694;10.006;2023-08-30T09:29:57;8.55;;;4.07;;
66429;SDS011;53242;51.694;10.006;2023-08-30T09:32:21;10.75;;;4.78;;
66429;SDS011;53242;51.694;10.006;2023-08-30T09:34:46;10.15;;;4.60;;
66429;SDS011;53242;51.694;10.006;2023-08-30T09:37:18;11.27;;;5.68;;
66429;SDS011;53242;51.694;10.006;2023-08-30T09:39:48;11.05;;;5.10;;
66429;SDS011;53242;51.694;10.006;2023-08-30T09:42:11;9.40;;;4.75;;
66429;SDS011;53242;51.694;10.006;2023-08-30T09:44:33;10.93;;;5.10;;
66429;SDS011;53242;51.694;10.006;2023-08-30T09:46:56;14.05;;;5.82;;
66429;SDS011;53242;51.694;10.006;2023-08-30T09:49:25;10.73;;;4.90;;
66429;SDS011;53242;51.694;10.006;2023-08-30T09:51:49;10.98;;;5.10;;
66429;SDS011;53242;51.694;10.006;2023-08-30T09:54:23;10.90;;;5.20;;
66429;SDS011;53242;51.694;10.006;2023-08-30T09:56:46;11.60;;;5.43;;
66429;SDS011;53242;51.694;10.006;2023-08-30T09:59:13;12.43;;;6.45;;
66429;SDS011;53242;51.694;10.006;2023-08-30T10:01:38;12.30;;;5.15;;
66429;SDS011;53242;51.694;10.006;2023-08-30T10:04:01;9.65;;;4.63;;
66429;SDS011;53242;51.694;10.006;2023-08-30T10:06:26;11.07;;;5.43;;
66429;SDS011;53242;51.694;10.006;2023-08-30T10:08:49;11.80;;;5.70;;
66429;SDS011;53242;51.694;10.006;2023-08-30T10:11:16;12.50;;;6.38;;
66429;SDS011;53242;51.694;10.006;2023-08-30T10:13:40;12.68;;;6.60;;
66429;SDS011;53242;51.694;10.006;2023-08-30T10:16:04;11.25;;;5.78;;
66429;SDS011;53242;51.694;10.006;2023-08-30T10:18:27;11.82;;;5.82;;
66429;SDS011;53242;51.694;10.006;2023-08-30T10:20:51;11.15;;;5.18;;
66429;SDS011;53242;51.694;10.006;2023-08-30T10:23:16;11.52;;;5.60;;
66429;SDS011;53242;51.694;10.006;2023-08-30T10:25:40;14.73;;;5.88;;
66429;SDS011;53242;51.694;10.006;2023-08-30T10:28:03;13.85;;;6.00;;
66429;SDS011;53242;51.694;10.006;2023-08-30T10:30:26;11.80;;;6.50;;
66429;SDS011;53242;51.694;10.006;2023-08-30T10:32:49;12.35;;;5.93;;
66429;SDS011;53242;51.694;10.006;2023-08-30T10:35:13;12.60;;;5.57;;
66429;SDS011;53242;51.694;10.006;2023-08-30T10:37:40;13.85;;;5.88;;
66429;SDS011;53242;51.694;10.006;2023-08-30T10:40:03;12.85;;;5.65;;
66429;SDS011;53242;51.694;10.006;2023-08-30T10:42:26;12.07;;;6.18;;
66429;SDS011;53242;51.694;10.006;2023-08-30T10:44:49;12.30;;;6.10;;
66429;SDS011;53242;51.694;10.006;2023-08-30T10:47:18;11.82;;;6.25;;
66429;SDS011;53242;51.694;10.006;2023-08-30T10:49:53;10.95;;;5.78;;
66429;SDS011;53242;51.694;10.006;2023-08-30T10:52:19;13.13;;;6.63;;
66429;SDS011;53242;51.694;10.006;2023-08-30T10:54:41;12.05;;;6.25;;
66429;SDS011;53242;51.694;10.006;2023-08-30T10:57:05;13.90;;;6.00;;
66429;SDS011;53242;51.694;10.006;2023-08-30T10:59:27;11.57;;;5.95;;
66429;SDS011;53242;51.694;10.006;2023-08-30T11:01:51;15.10;;;7.53;;
66429;SDS011;53242;51.694;10.006;2023-08-30T11:04:15;13.13;;;6.72;;
66429;SDS011;53242;51.694;10.006;2023-08-30T11:06:42;16.25;;;7.68;;
66429;SDS011;53242;51.694;10.006;2023-08-30T11:09:06;14.88;;;7.32;;
66429;SDS011;53242;51.694;10.006;2023-08-30T11:11:29;14.13;;;7.10;;
66429;SDS011;53242;51.694;10.006;2023-08-30T11:13:52;12.68;;;6.25;;
66429;SDS011;53242;51.694;10.006;2023-08-30T11:16:20;12.63;;;6.28;;
66429;SDS011;53242;51.694;10.006;2023-08-30T11:18:43;12.50;;;6.32;;
66429;SDS011;53242;51.694;10.006;2023-08-30T11:21:05;11.32;;;5.75;;
66429;SDS011;53242;51.694;10.006;2023-08-30T11:23:28;13.95;;;7.45;;
66429;SDS011;53242;51.694;10.006;2023-08-30T11:25:51;12.35;;;6.53;;
66429;SDS011;53242;51.694;10.006;2023-08-30T11:28:21;13.18;;;6.57;;
66429;SDS011;53242;51.694;10.006;2023-08-30T11:30:44;10.55;;;5.15;;
66429;SDS011;53242;51.694;10.006;2023-08-30T11:33:06;10.00;;;4.75;;
66429;SDS011;53242;51.694;10.006;2023-08-30T11:35:29;13.45;;;6.55;;
66429;SDS011;53242;51.694;10.006;2023-08-30T11:37:52;10.93;;;5.95;;
66429;SDS011;53242;51.694;10.006;2023-08-30T11:40:15;10.15;;;5.85;;
66429;SDS011;53242;51.694;10.006;2023-08-30T11:42:39;11.48;;;6.28;;
66429;SDS011;53242;51.694;10.006;2023-08-30T11:45:01;13.25;;;6.63;;
66429;SDS011;53242;51.694;10.006;2023-08-30T11:47:26;12.38;;;6.30;;
66429;SDS011;53242;51.694;10.006;2023-08-30T11:49:49;10.98;;;5.78;;
66429;SDS011;53242;51.694;10.006;2023-08-30T11:52:12;12.63;;;7.40;;
66429;SDS011;53242;51.694;10.006;2023-08-30T11:54:35;11.82;;;5.18;;
66429;SDS011;53242;51.694;10.006;2023-08-30T11:56:58;9.95;;;4.90;;
66429;SDS011;53242;51.694;10.006;2023-08-30T11:59:21;8.05;;;4.60;;
66429;SDS011;53242;51.694;10.006;2023-08-30T12:01:44;11.40;;;5.35;;
66429;SDS011;53242;51.694;10.006;2023-08-30T12:04:10;11.07;;;4.82;;
66429;SDS011;53242;51.694;10.006;2023-08-30T12:06:33;11.13;;;5.05;;
66429;SDS011;53242;51.694;10.006;2023-08-30T12:08:58;9.27;;;4.03;;
66429;SDS011;53242;51.694;10.006;2023-08-30T12:11:20;8.55;;;3.80;;
66429;SDS011;53242;51.694;10.006;2023-08-30T12:13:43;7.40;;;3.75;;
66429;SDS011;53242;51.694;10.006;2023-08-30T12:16:05;8.70;;;4.47;;
66429;SDS011;53242;51.694;10.006;2023-08-30T12:18:31;10.55;;;5.15;;
66429;SDS011;53242;51.694;10.006;2023-08-30T12:20:55;9.77;;;5.40;;
66429;SDS011;53242;51.694;10.006;2023-08-30T12:23:20;8.93;;;3.40;;
66429;SDS011;53242;51.694;10.006;2023-08-30T12:25:43;6.10;;;2.90;;
66429;SDS011;53242;51.694;10.006;2023-08-30T12:28:05;7.97;;;3.45;;
66429;SDS011;53242;51.694;10.006;2023-08-30T12:30:28;6.40;;;2.75;;
66429;SDS011;53242;51.694;10.006;2023-08-30T12:32:50;6.32;;;3.22;;
66429;SDS011;53242;51.694;10.006;2023-08-30T12:35:13;6.50;;;3.03;;
66429;SDS011;53242;51.694;10.006;2023-08-30T12:37:36;6.10;;;3.20;;
66429;SDS011;53242;51.694;10.006;2023-08-30T12:39:58;5.47;;;2.63;;
66429;SDS011;53242;51.694;10.006;2023-08-30T12:42:20;5.45;;;2.70;;
66429;SDS011;53242;51.694;10.006;2023-08-30T12:44:43;5.07;;;2.90;;
66429;SDS011;53242;51.694;10.006;2023-08-30T12:47:05;6.18;;;3.13;;
66429;SDS011;53242;51.694;10.006;2023-08-30T12:49:27;4.88;;;2.72;;
66429;SDS011;53242;51.694;10.006;2023-08-30T12:51:50;6.97;;;3.00;;
66429;SDS011;53242;51.694;10.006;2023-08-30T12:54:12;5.43;;;3.10;;
66429;SDS011;53242;51.694;10.006;2023-08-30T12:56:35;6.78;;;3.03;;
66429;SDS011;53242;51.694;10.006;2023-08-30T12:58:57;4.57;;;2.22;;
66429;SDS011;53242;51.694;10.006;2023-08-30T13:01:19;4.32;;;2.30;;
66429;SDS011;53242;51.694;10.006;2023-08-30T13:03:42;5.53;;;3.03;;
66429;SDS011;53242;51.694;10.006;2023-08-30T13:06:04;4.82;;;2.60;;
66429;SDS011;53242;51.694;10.006;2023-08-30T13:08:27;3.78;;;2.53;;
66429;SDS011;53242;51.694;10.006;2023-08-30T13:10:49;5.60;;;2.92;;
66429;SDS011;53242;51.694;10.006;2023-08-30T13:13:12;6.30;;;2.72;;
66429;SDS011;53242;51.694;10.006;2023-08-30T13:15:34;8.38;;;3.10;;
66429;SDS011;53242;51.694;10.006;2023-08-30T13:17:57;5.82;;;2.70;;
66429;SDS011;53242;51.694;10.006;2023-08-30T13:20:20;7.05;;;3.17;;
66429;SDS011;53242;51.694;10.006;2023-08-30T13:22:42;7.35;;;3.45;;
66429;SDS011;53242;51.694;10.006;2023-08-30T13:25:04;5.60;;;2.83;;
66429;SDS011;53242;51.694;10.006;2023-08-30T13:27:27;7.07;;;3.20;;
66429;SDS011;53242;51.694;10.006;2023-08-30T13:29:50;4.00;;;2.33;;
66429;SDS011;53242;51.694;10.006;2023-08-30T13:32:12;8.32;;;2.67;;
66429;SDS011;53242;51.694;10.006;2023-08-30T13:34:34;5.35;;;2.80;;
66429;SDS011;53242;51.694;10.006;2023-08-30T13:36:57;6.40;;;2.97;;
66429;SDS011;53242;51.694;10.006;2023-08-30T13:39:19;7.35;;;3.38;;
66429;SDS011;53242;51.694;10.006;2023-08-30T13:41:42;7.85;;;3.05;;
66429;SDS011;53242;51.694;10.006;2023-08-30T13:44:05;6.40;;;2.75;;
66429;SDS011;53242;51.694;10.006;2023-08-30T13:46:27;6.18;;;2.78;;
66429;SDS011;53242;51.694;10.006;2023-08-30T13:48:49;7.38;;;3.60;;
66429;SDS011;53242;51.694;10.006;2023-08-30T13:51:12;5.30;;;2.53;;
66429;SDS011;53242;51.694;10.006;2023-08-30T13:53:34;6.20;;;2.70;;
66429;SDS011;53242;51.694;10.006;2023-08-30T13:55:57;6.28;;;3.28;;
66429;SDS011;53242;51.694;10.006;2023-08-30T13:58:19;5.53;;;2.80;;
66429;SDS011;53242;51.694;10.006;2023-08-30T14:00:42;6.60;;;3.28;;
66429;SDS011;53242;51.694;10.006;2023-08-30T14:03:06;7.70;;;3.05;;
66429;SDS011;53242;51.694;10.006;2023-08-30T14:05:30;5.28;;;2.22;;
66429;SDS011;53242;51.694;10.006;2023-08-30T14:07:53;6.28;;;2.80;;
66429;SDS011;53242;51.694;10.006;2023-08-30T14:10:15;8.85;;;3.00;;
66429;SDS011;53242;51.694;10.006;2023-08-30T14:12:40;7.72;;;3.25;;
66429;SDS011;53242;51.694;10.006;2023-08-30T14:15:02;7.53;;;2.90;;
66429;SDS011;53242;51.694;10.006;2023-08-30T14:17:25;6.93;;;2.90;;